createdAt,value
2022-11-29T00:00:04.767Z,66.91
2022-11-29T00:03:01.090Z,66.82
2022-11-29T00:05:48.923Z,66.91
2022-11-29T00:08:37.603Z,67.23
2022-11-29T00:11:46.862Z,67.15
2022-11-29T00:14:34.458Z,67.12
2022-11-29T00:17:22.096Z,67.17
2022-11-29T00:20:10.899Z,67.17
2022-11-29T00:22:58.497Z,67.32
2022-11-29T00:25:46.121Z,67.23
2022-11-29T00:28:35.204Z,67.28
2022-11-29T00:31:30.447Z,67.30
2022-11-29T00:34:18.216Z,67.18
2022-11-29T00:37:05.863Z,67.25
2022-11-29T00:39:53.478Z,67.10
2022-11-29T00:42:41.021Z,67.19
2022-11-29T00:45:28.699Z,67.22
2022-11-29T00:48:16.366Z,67.22
2022-11-29T00:51:05.758Z,67.24
2022-11-29T00:53:53.355Z,67.08
2022-11-29T00:56:41.068Z,67.07
2022-11-29T00:59:30.349Z,67.21
2022-11-29T01:02:18.059Z,67.14
2022-11-29T01:05:05.968Z,67.21
2022-11-29T01:07:53.705Z,67.14
2022-11-29T01:10:41.699Z,67.18
2022-11-29T01:13:29.390Z,67.13
2022-11-29T01:16:17.482Z,67.37
2022-11-29T01:19:07.311Z,67.36
2022-11-29T01:21:55.030Z,67.46
2022-11-29T01:24:42.813Z,67.45
2022-11-29T01:27:30.789Z,67.52
2022-11-29T01:30:18.406Z,67.70
2022-11-29T01:33:06.057Z,67.55
2022-11-29T01:35:54.830Z,67.54
2022-11-29T01:38:42.538Z,67.66
2022-11-29T01:41:32.616Z,67.53
2022-11-29T01:44:20.158Z,67.40
2022-11-29T01:47:11.314Z,67.35
2022-11-29T01:49:59.942Z,67.48
2022-11-29T01:52:48.293Z,67.24
2022-11-29T01:55:43.219Z,67.60
2022-11-29T01:58:33.243Z,67.67
2022-11-29T02:01:20.960Z,67.55
2022-11-29T02:04:08.852Z,67.59
2022-11-29T02:06:56.385Z,67.71
2022-11-29T02:09:44.093Z,67.45
2022-11-29T02:13:06.237Z,67.49
2022-11-29T02:16:10.222Z,67.21
2022-11-29T02:19:35.734Z,67.28
2022-11-29T02:22:37.427Z,67.58
2022-11-29T02:25:46.526Z,67.56
2022-11-29T02:28:58.937Z,67.84
2022-11-29T02:32:37.963Z,67.71
2022-11-29T02:35:31.299Z,67.82
2022-11-29T02:38:43.382Z,67.75
2022-11-29T02:41:55.371Z,67.68
2022-11-29T02:44:51.932Z,67.50
2022-11-29T02:47:45.519Z,67.75
2022-11-29T02:50:52.211Z,67.69
2022-11-29T02:53:50.046Z,67.69
2022-11-29T02:56:53.957Z,67.51
2022-11-29T03:00:06.642Z,67.55
2022-11-29T03:03:12.546Z,67.56
2022-11-29T03:06:12.122Z,67.69
2022-11-29T03:09:07.935Z,67.71
2022-11-29T03:12:15.769Z,67.53
2022-11-29T03:15:23.780Z,67.32
2022-11-29T03:18:32.933Z,67.43
2022-11-29T03:21:29.501Z,67.40
2022-11-29T03:24:28.883Z,67.57
2022-11-29T03:27:36.383Z,67.33
2022-11-29T03:30:24.142Z,67.37
2022-11-29T03:33:28.211Z,67.31
2022-11-29T03:36:33.630Z,67.34
2022-11-29T03:39:42.683Z,67.32
2022-11-29T03:42:37.603Z,67.39
2022-11-29T03:45:32.805Z,67.39
2022-11-29T03:48:35.564Z,67.03
2022-11-29T03:51:59.348Z,67.05
2022-11-29T03:55:03.266Z,67.19
2022-11-29T03:58:05.840Z,67.22
2022-11-29T04:01:21.165Z,67.18
2022-11-29T04:04:36.758Z,66.78
2022-11-29T04:07:27.170Z,67.00
2022-11-29T04:10:40.103Z,66.99
2022-11-29T04:14:05.209Z,67.26
2022-11-29T04:17:23.976Z,67.28
2022-11-29T04:20:23.384Z,67.16
2022-11-29T04:23:35.486Z,66.97
2022-11-29T04:26:38.005Z,67.10
2022-11-29T04:29:53.259Z,66.89
2022-11-29T04:33:10.241Z,67.13
2022-11-29T04:36:36.133Z,66.99
2022-11-29T04:39:57.085Z,67.07
2022-11-29T04:42:50.358Z,67.03
2022-11-29T04:45:56.132Z,66.91
2022-11-29T04:49:06.078Z,67.00
2022-11-29T04:52:02.892Z,67.00
2022-11-29T04:55:21.645Z,66.78
2022-11-29T04:58:27.012Z,66.89
2022-11-29T05:01:24.026Z,66.69
2022-11-29T05:04:30.012Z,66.70
2022-11-29T05:07:44.081Z,66.58
2022-11-29T05:10:41.914Z,66.73
2022-11-29T05:13:45.552Z,66.71
2022-11-29T05:17:01.039Z,66.62
2022-11-29T05:20:21.039Z,66.78
2022-11-29T05:23:14.733Z,66.69
2022-11-29T05:26:20.229Z,66.81
2022-11-29T05:29:17.111Z,66.66
2022-11-29T05:32:04.760Z,66.59
2022-11-29T05:35:01.255Z,66.69
2022-11-29T05:37:52.732Z,66.58
2022-11-29T05:40:55.221Z,66.60
2022-11-29T05:44:10.003Z,66.63
2022-11-29T05:47:04.737Z,66.54
2022-11-29T05:50:12.672Z,66.64
2022-11-29T05:53:05.928Z,66.47
2022-11-29T05:56:09.193Z,66.36
2022-11-29T05:59:13.694Z,66.40
2022-11-29T06:02:17.775Z,66.56
2022-11-29T06:05:55.556Z,66.70
2022-11-29T06:09:00.546Z,67.06
2022-11-29T06:12:18.149Z,67.02
2022-11-29T06:15:39.048Z,66.91
2022-11-29T06:19:11.926Z,66.65
2022-11-29T06:22:32.096Z,66.58
2022-11-29T06:25:37.727Z,66.21
2022-11-29T06:28:56.306Z,66.22
2022-11-29T06:31:49.049Z,66.23
2022-11-29T06:34:48.953Z,66.22
2022-11-29T06:37:42.561Z,66.25
2022-11-29T06:40:31.094Z,66.08
2022-11-29T06:43:22.704Z,66.37
2022-11-29T06:46:22.655Z,66.09
2022-11-29T06:49:41.704Z,66.12
2022-11-29T06:52:32.979Z,66.21
2022-11-29T06:56:13.509Z,65.99
2022-11-29T06:59:25.408Z,65.98
2022-11-29T07:02:35.558Z,65.79
2022-11-29T07:05:32.356Z,65.76
2022-11-29T07:08:23.777Z,65.72
2022-11-29T07:11:14.448Z,65.68
2022-11-29T07:14:03.135Z,65.68
2022-11-29T07:17:09.263Z,65.57
2022-11-29T07:20:10.852Z,65.57
2022-11-29T07:23:29.855Z,65.38
2022-11-29T07:26:26.536Z,65.10
2022-11-29T07:29:21.234Z,65.43
2022-11-29T07:32:27.517Z,65.60
2022-11-29T07:35:18.031Z,65.40
2022-11-29T07:38:15.097Z,65.64
2022-11-29T07:41:20.814Z,65.41
2022-11-29T07:44:18.247Z,65.45
2022-11-29T07:47:09.027Z,65.29
2022-11-29T07:49:57.320Z,64.94
2022-11-29T07:52:45.353Z,65.17
2022-11-29T07:55:35.221Z,65.21
2022-11-29T07:58:23.681Z,64.60
2022-11-29T08:01:11.799Z,64.80
2022-11-29T08:04:02.276Z,65.01
2022-11-29T08:06:53.393Z,65.25
2022-11-29T08:09:41.393Z,65.31
2022-11-29T08:12:29.695Z,65.33
2022-11-29T08:15:19.830Z,65.11
2022-11-29T08:18:10.721Z,65.18
2022-11-29T08:21:00.021Z,64.99
2022-11-29T08:23:51.649Z,64.52
2022-11-29T08:26:40.149Z,64.61
2022-11-29T08:29:28.108Z,64.16
2022-11-29T08:32:16.451Z,64.51
2022-11-29T08:35:04.800Z,64.72
2022-11-29T08:37:54.474Z,64.49
2022-11-29T08:40:42.422Z,64.21
2022-11-29T08:43:33.448Z,64.32
2022-11-29T08:46:21.337Z,63.92
2022-11-29T08:49:09.546Z,63.90
2022-11-29T08:52:17.328Z,63.51
2022-11-29T08:55:05.577Z,63.97
2022-11-29T08:58:00.532Z,63.99
2022-11-29T09:00:48.764Z,63.60
2022-11-29T09:03:55.481Z,63.79
2022-11-29T09:06:44.566Z,63.32
2022-11-29T09:09:32.525Z,63.28
2022-11-29T09:12:20.429Z,63.31
2022-11-29T09:15:10.482Z,63.57
2022-11-29T09:17:58.593Z,63.39
2022-11-29T09:20:46.767Z,63.22
2022-11-29T09:23:35.775Z,63.12
2022-11-29T09:26:23.988Z,63.04
2022-11-29T09:29:12.244Z,62.87
2022-11-29T09:32:00.265Z,63.65
2022-11-29T09:34:48.462Z,63.87
2022-11-29T09:37:37.337Z,63.26
2022-11-29T09:40:39.079Z,63.07
2022-11-29T09:43:35.888Z,62.76
2022-11-29T09:46:35.711Z,62.76
2022-11-29T09:49:48.017Z,62.98
2022-11-29T09:53:13.533Z,62.86
2022-11-29T09:56:10.516Z,62.79
2022-11-29T09:59:02.644Z,62.46
2022-11-29T10:02:00.449Z,62.26
2022-11-29T10:04:56.314Z,61.38
2022-11-29T10:07:51.452Z,61.40
2022-11-29T10:11:12.313Z,60.89
2022-11-29T10:14:09.542Z,60.83
2022-11-29T10:17:14.182Z,60.89
2022-11-29T10:20:25.787Z,60.59
2022-11-29T10:23:29.934Z,61.03
2022-11-29T10:26:18.449Z,61.24
2022-11-29T10:29:06.610Z,61.74
2022-11-29T10:31:57.042Z,61.68
2022-11-29T10:34:45.876Z,61.57
2022-11-29T10:37:34.962Z,61.60
2022-11-29T10:40:34.058Z,61.93
2022-11-29T10:43:24.501Z,61.64
2022-11-29T10:46:27.972Z,61.75
2022-11-29T10:49:20.039Z,62.15
2022-11-29T10:52:20.219Z,62.29
2022-11-29T10:55:14.936Z,62.37
2022-11-29T10:58:26.247Z,62.28
2022-11-29T11:01:17.097Z,62.38
2022-11-29T11:04:10.191Z,62.20
2022-11-29T11:07:01.870Z,62.23
2022-11-29T11:09:53.717Z,62.31
2022-11-29T11:13:00.203Z,62.20
2022-11-29T11:15:50.535Z,62.04
2022-11-29T11:18:38.660Z,62.13
2022-11-29T11:21:28.609Z,61.93
2022-11-29T11:24:31.076Z,62.15
2022-11-29T11:27:33.487Z,62.43
2022-11-29T11:30:27.658Z,62.29
2022-11-29T11:33:23.094Z,62.22
2022-11-29T11:36:20.744Z,62.05
2022-11-29T11:39:09.592Z,62.23
2022-11-29T11:42:16.044Z,62.25
2022-11-29T11:45:28.152Z,62.39
2022-11-29T11:48:20.646Z,62.56
2022-11-29T11:51:22.033Z,62.43
2022-11-29T11:54:15.537Z,62.89
2022-11-29T11:57:03.902Z,62.88
2022-11-29T11:59:54.199Z,62.65
2022-11-29T12:02:44.649Z,62.74
2022-11-29T12:05:33.110Z,62.77
2022-11-29T12:08:22.628Z,62.67
2022-11-29T12:11:16.044Z,62.86
2022-11-29T12:14:06.540Z,62.88
2022-11-29T12:17:03.431Z,62.97
2022-11-29T12:20:15.485Z,63.04
2022-11-29T12:23:27.524Z,63.13
2022-11-29T12:26:55.534Z,63.32
2022-11-29T12:29:35.170Z,63.25
2022-11-29T12:32:42.196Z,63.29
2022-11-29T12:36:05.185Z,63.20
2022-11-29T12:39:05.628Z,63.31
2022-11-29T12:42:09.712Z,63.37
2022-11-29T12:45:18.766Z,63.23
2022-11-29T12:48:28.510Z,63.56
2022-11-29T12:51:25.919Z,63.60
2022-11-29T12:54:32.751Z,63.89
2022-11-29T12:57:49.463Z,63.80
2022-11-29T13:00:46.753Z,63.92
2022-11-29T13:04:14.481Z,64.13
2022-11-29T13:07:19.182Z,64.24
2022-11-29T13:10:18.341Z,64.29
2022-11-29T13:13:15.734Z,64.38
2022-11-29T13:19:53.308Z,64.59
2022-11-29T13:23:02.234Z,64.81
2022-11-29T13:25:54.320Z,64.96
2022-11-29T13:28:44.524Z,64.88
2022-11-29T13:31:33.526Z,64.80
2022-11-29T13:34:31.554Z,64.80
2022-11-29T13:37:31.797Z,65.12
2022-11-29T13:40:54.184Z,65.01
2022-11-29T13:43:56.981Z,65.31
2022-11-29T13:46:47.934Z,65.40
2022-11-29T13:50:22.699Z,65.24
2022-11-29T13:53:49.319Z,65.43
2022-11-29T13:57:14.491Z,65.48
2022-11-29T14:04:46.379Z,65.34
2022-11-29T14:07:35.112Z,65.60
2022-11-29T14:10:29.230Z,65.67
2022-11-29T14:13:21.222Z,65.68
2022-11-29T14:16:28.513Z,65.61
2022-11-29T14:23:40.938Z,65.73
2022-11-29T14:27:17.855Z,65.67
2022-11-29T14:31:38.673Z,65.55
2022-11-29T14:34:48.930Z,65.76
2022-11-29T14:38:03.667Z,65.71
2022-11-29T14:41:22.972Z,65.86
2022-11-29T14:44:19.385Z,65.79
2022-11-29T14:47:25.444Z,65.89
2022-11-29T14:53:52.894Z,65.94
2022-11-29T14:56:46.165Z,65.73
2022-11-29T14:59:37.847Z,66.12
2022-11-29T15:02:35.861Z,65.95
2022-11-29T15:05:31.863Z,66.14
2022-11-29T15:08:35.458Z,66.05
2022-11-29T15:11:52.746Z,66.10
2022-11-29T15:15:27.864Z,66.08
2022-11-29T15:18:24.726Z,66.17
2022-11-29T15:22:04.589Z,66.46
2022-11-29T15:41:01.712Z,66.37
2022-11-29T15:43:53.413Z,66.36
2022-11-29T15:54:12.173Z,66.51
2022-11-29T15:58:08.346Z,66.49
2022-11-29T16:05:13.442Z,66.44
2022-11-29T16:23:57.308Z,66.96
2022-11-29T16:26:50.648Z,66.99
2022-11-29T16:29:45.467Z,66.96
2022-11-29T16:32:38.189Z,66.94
2022-11-29T16:35:34.566Z,66.87
2022-11-29T16:38:28.608Z,66.73
2022-11-29T16:41:45.785Z,66.77
2022-11-29T16:44:40.105Z,66.92
2022-11-29T16:47:30.503Z,66.87
2022-11-29T16:50:19.949Z,67.25
2022-11-29T16:53:37.649Z,67.04
2022-11-29T16:56:28.695Z,67.15
2022-11-29T16:59:26.488Z,67.10
2022-11-29T17:02:16.148Z,67.07
2022-11-29T17:05:04.500Z,67.09
2022-11-29T17:07:52.834Z,67.03
2022-11-29T17:10:41.237Z,67.18
2022-11-29T17:13:29.178Z,67.10
2022-11-29T17:16:19.516Z,67.17
2022-11-29T17:19:12.022Z,67.20
2022-11-29T17:21:59.840Z,67.34
2022-11-29T17:24:48.537Z,67.31
2022-11-29T17:27:37.017Z,66.75
2022-11-29T17:30:24.694Z,67.35
2022-11-29T17:33:12.305Z,67.24
2022-11-29T17:36:07.571Z,67.24
2022-11-29T17:38:55.209Z,67.45
2022-11-29T17:41:42.944Z,67.27
2022-11-29T17:44:30.611Z,67.36
2022-11-29T17:47:18.262Z,67.63
2022-11-29T17:50:06.521Z,67.60
2022-11-29T17:52:54.097Z,67.54
2022-11-29T17:55:41.747Z,67.56
2022-11-29T17:58:29.652Z,67.54
2022-11-29T18:01:19.446Z,67.71
2022-11-29T18:04:08.385Z,67.63
2022-11-29T18:06:56.122Z,67.70
2022-11-29T18:09:44.985Z,67.72
2022-11-29T18:12:32.768Z,67.78
2022-11-29T18:15:20.571Z,67.76
2022-11-29T18:18:08.202Z,67.64
2022-11-29T18:21:00.263Z,67.84
2022-11-29T18:23:47.899Z,67.95
2022-11-29T18:26:36.670Z,67.99
2022-11-29T18:29:24.263Z,67.97
2022-11-29T18:32:11.849Z,67.83
2022-11-29T18:35:00.034Z,67.82
2022-11-29T18:38:14.155Z,67.91
2022-11-29T18:40:55.295Z,67.94
2022-11-29T18:43:43.331Z,67.99
2022-11-29T18:46:36.585Z,68.05
2022-11-29T18:49:24.196Z,67.98
2022-11-29T18:52:11.796Z,68.18
2022-11-29T18:54:59.413Z,68.10
2022-11-29T18:57:50.389Z,68.09
2022-11-29T19:00:39.094Z,68.23
2022-11-29T19:03:26.812Z,68.23
2022-11-29T19:06:16.699Z,68.19
2022-11-29T19:09:05.521Z,68.20
2022-11-29T19:11:53.265Z,68.01
2022-11-29T19:14:45.089Z,68.14
2022-11-29T19:17:41.649Z,68.28
2022-11-29T19:20:34.379Z,68.38
2022-11-29T19:23:22.253Z,68.24
2022-11-29T19:26:12.485Z,68.28
2022-11-29T19:29:01.138Z,68.13
2022-11-29T19:31:50.393Z,68.17
2022-11-29T19:34:38.422Z,68.15
2022-11-29T19:37:26.114Z,68.34
2022-11-29T19:40:13.863Z,68.33
2022-11-29T19:43:01.475Z,68.18
2022-11-29T19:45:49.178Z,68.37
2022-11-29T19:48:37.261Z,68.27
2022-11-29T19:51:26.946Z,68.46
2022-11-29T19:54:14.705Z,68.47
2022-11-29T19:57:02.581Z,68.55
2022-11-29T19:59:50.256Z,68.39
2022-11-29T20:02:38.011Z,68.53
2022-11-29T20:05:27.257Z,68.46
2022-11-29T20:08:19.844Z,68.54
2022-11-29T20:11:14.650Z,68.43
2022-11-29T20:14:04.166Z,68.31
2022-11-29T20:16:51.740Z,68.41
2022-11-29T20:19:39.351Z,68.47
2022-11-29T20:22:26.948Z,68.49
2022-11-29T20:25:14.516Z,68.67
2022-11-29T20:28:04.158Z,68.63
2022-11-29T20:30:52.628Z,68.57
2022-11-29T20:33:41.861Z,68.45
2022-11-29T20:36:44.674Z,68.56
2022-11-29T20:39:57.579Z,68.77
2022-11-29T20:43:03.286Z,68.72
2022-11-29T20:45:51.029Z,68.80
2022-11-29T20:48:38.841Z,68.75
2022-11-29T20:51:37.205Z,68.73
2022-11-29T20:54:24.789Z,68.90
2022-11-29T20:57:12.340Z,68.69
2022-11-29T21:00:00.097Z,68.77
2022-11-29T21:02:47.947Z,68.71
2022-11-29T21:05:37.871Z,68.71
2022-11-29T21:08:26.553Z,68.68
2022-11-29T21:11:14.526Z,68.59
2022-11-29T21:14:03.959Z,68.82
2022-11-29T21:16:51.817Z,68.66
2022-11-29T21:19:40.090Z,68.89
2022-11-29T21:22:47.707Z,68.77
2022-11-29T21:26:09.016Z,68.79
2022-11-29T21:29:16.422Z,68.96
2022-11-29T21:32:04.561Z,68.84
2022-11-29T21:34:52.624Z,69.02
2022-11-29T21:37:41.016Z,68.97
2022-11-29T21:40:28.690Z,68.87
2022-11-29T21:43:16.945Z,69.00
2022-11-29T21:46:04.549Z,68.99
2022-11-29T21:48:52.930Z,68.98
2022-11-29T21:51:40.602Z,68.89
2022-11-29T21:54:29.608Z,69.03
2022-11-29T21:57:17.225Z,69.08
2022-11-29T22:00:05.953Z,69.10
2022-11-29T22:02:55.856Z,68.95
2022-11-29T22:05:43.512Z,69.10
2022-11-29T22:08:36.088Z,68.95
2022-11-29T22:11:30.991Z,69.02
2022-11-29T22:14:19.254Z,68.71
2022-11-29T22:17:06.892Z,68.65
2022-11-29T22:19:54.483Z,68.85
2022-11-29T22:22:42.038Z,69.03
2022-11-29T22:25:29.566Z,69.15
2022-11-29T22:28:17.132Z,69.01
2022-11-29T22:31:10.383Z,69.09
2022-11-29T22:33:58.291Z,69.09
2022-11-29T22:36:45.924Z,69.13
2022-11-29T22:39:33.588Z,69.12
2022-11-29T22:42:21.181Z,69.12
2022-11-29T22:45:09.227Z,69.23
2022-11-29T22:47:58.167Z,69.08
2022-11-29T22:50:45.769Z,69.12
2022-11-29T22:53:34.153Z,69.03
2022-11-29T22:56:23.721Z,69.09
2022-11-29T22:59:11.617Z,69.09
2022-11-29T23:01:59.260Z,69.16
2022-11-29T23:04:47.085Z,69.03
2022-11-29T23:07:34.885Z,69.24
2022-11-29T23:10:22.534Z,69.26
2022-11-29T23:13:10.091Z,69.18
2022-11-29T23:15:57.799Z,69.27
2022-11-29T23:18:46.257Z,69.26
2022-11-29T23:21:37.079Z,69.25
2022-11-29T23:24:24.694Z,69.11
2022-11-29T23:27:12.279Z,69.18
2022-11-29T23:29:59.897Z,69.29
2022-11-29T23:32:47.517Z,68.96
2022-11-29T23:35:35.054Z,69.28
2022-11-29T23:38:22.582Z,69.07
2022-11-29T23:41:11.696Z,69.03
2022-11-29T23:43:59.856Z,69.07
2022-11-29T23:46:47.456Z,69.12
2022-11-29T23:49:35.783Z,69.34
2022-11-29T23:52:23.355Z,69.20
2022-11-29T23:55:14.428Z,69.20
2022-11-29T23:58:02.222Z,69.19
